• Join FlightAware (Why Join?)
  • Login
  • US Flag 
06:48PM EST


 

Airport Tracker/Info


-or-


 

Live Flight TrackerFlight Track Log ✈ N93XP ✈ 24-Aug-2014 ✈ KCKB - KFTW

Flight Track Log - Related Links

Times and Time Zones

All times are in EDT time to prevent confusion due to time zone crossing. See the N93XP flight status page for this flight to view local times or setup timezone preferences in your user account.

Time Position Orientation Groundspeed Altitude Reporting Facility
EDT Latitude Longitude Course Direction KTS MPH feet Rate Location/Type
03:43PM 39.3297 -80.3525 253° West 247 284 8,000  Level Cleveland Center
03:44PM 39.3175 -80.3994 251° West 239 275 9,100 1,560 Climbing Indianapolis Center
03:46PM 39.2469 -80.6075 246° West 305 351 12,300 1,440 Climbing Indianapolis Center
03:47PM 39.2164 -80.7036 248° West 326 375 13,700 1,440 Climbing Indianapolis Center
03:48PM 39.0188 -81.0822 249° West  Level FlightAware Approximate
03:49PM 39.1333 -80.9581 247° West 349 402 16,900  Level Indianapolis Center
03:51PM 39.0561 -81.1903 247° West 351 404 19,800 1,380 Climbing Indianapolis Center
03:52PM 39.0183 -81.3056 247° West 351 404 21,300 1,260 Climbing Indianapolis Center
03:53PM 38.9811 -81.4197 247° West 351 404 22,500 1,080 Climbing Indianapolis Center
03:54PM 38.9331 -81.5608 246° West 358 412 23,600 1,020 Climbing Indianapolis Center
03:55PM 38.8922 -81.6806 246° West 365 420 24,600 960 Climbing Indianapolis Center
03:57PM 38.8111 -81.9244 247° West 372 428 26,600 960 Climbing Indianapolis Center
03:58PM 38.7733 -82.0481 249° West 372 428 27,600 960 Climbing Indianapolis Center
03:59PM 38.7339 -82.1981 251° West 372 428 28,700 960 Climbing Indianapolis Center
04:00PM 38.6964 -82.3194 248° West 372 428 29,600 840 Climbing Indianapolis Center
04:01PM 38.6525 -82.4378 245° Southwest 372 428 30,500 720 Climbing Indianapolis Center
04:02PM 38.5892 -82.5492 234° Southwest 374 430 31,100 540 Climbing Indianapolis Center
04:04PM 38.5439 -82.6725 245° Southwest 379 436 31,700 480 Climbing Indianapolis Center
04:05PM 38.4997 -82.7978 246° West 383 441 32,200 540 Climbing Indianapolis Center
04:06PM 38.4481 -82.9450 246° West 386 444 32,900 600 Climbing Indianapolis Center
04:07PM 38.4042 -83.0739 247° West 392 451 33,500 480 Climbing Indianapolis Center
04:08PM 38.3586 -83.2017 246° West 393 452 34,000 240 Climbing Indianapolis Center
04:09PM 38.3119 -83.3317 245° Southwest 399 459 34,000  Level Indianapolis Center
04:10PM 38.2650 -83.4658 246° West 409 471 34,000 180 Level Indianapolis Center
04:11PM 38.2081 -83.6239 245° Southwest 416 479 34,400 660 Climbing Indianapolis Center
04:12PM 38.1608 -83.7561 246° West 416 479 35,400 780 Climbing Indianapolis Center
04:13PM 38.1153 -83.8819 245° Southwest 401 461 36,000 180 Climbing Indianapolis Center
04:14PM 38.0386 -84.0886 245° Southwest 403 464 36,000  Level Memphis Center
04:15PM 38.0217 -84.1386 247° West 400 460 36,000  Level Indianapolis Center
04:16PM 37.9722 -84.2728 245° Southwest 411 473 36,000  Level Indianapolis Center
04:17PM 37.9142 -84.4308 245° Southwest 420 483 36,000 -60 Level Indianapolis Center
04:18PM 37.8642 -84.5669 245° Southwest 422 486 35,900  Descending Indianapolis Center
04:19PM 37.8139 -84.7022 245° Southwest 423 487 36,000 60 Climbing Indianapolis Center
04:20PM 37.7625 -84.8381 244° Southwest 424 488 36,100  Climbing Indianapolis Center
04:21PM 37.7125 -84.9725 245° Southwest 424 488 36,100  Level Indianapolis Center
04:22PM 37.6531 -85.1300 245° Southwest 424 488 36,100 -60 Level Indianapolis Center
04:23PM 37.6039 -85.2639 245° Southwest 424 488 36,000 -60 Descending Indianapolis Center
04:25PM 37.5050 -85.5231 244° Southwest 421 484 36,000  Level Indianapolis Center
04:26PM 37.4536 -85.6581 244° Southwest 422 486 36,000  Level Indianapolis Center
04:27PM 37.3908 -85.8200 244° Southwest 424 488 36,000  Level Indianapolis Center
04:28PM 37.3425 -85.9417 243° Southwest 424 488 36,000  Level Indianapolis Center
04:29PM 37.2906 -86.0778 244° Southwest 424 488 36,000  Level Indianapolis Center
04:30PM 37.2553 -86.1650 243° Southwest 425 489 36,000  Level Memphis Center
04:31PM 37.1967 -86.2950 241° Southwest 426 490 36,000  Level Memphis Center
04:32PM 37.1281 -86.4169 235° Southwest 425 489 36,000  Level Memphis Center
04:33PM 37.0617 -86.5411 236° Southwest 426 490 36,000  Level Memphis Center
04:34PM 36.9953 -86.6653 236° Southwest 426 490 36,000  Level Memphis Center
04:35PM 36.9172 -86.8103 236° Southwest 427 491 36,000  Level Memphis Center
04:36PM 36.8506 -86.9353 236° Southwest 428 493 36,000  Level Memphis Center
04:37PM 36.7842 -87.0589 236° Southwest 428 493 36,000  Level Memphis Center
04:38PM 36.7186 -87.1825 237° Southwest 428 493 36,000  Level Memphis Center
04:39PM 36.6519 -87.3067 236° Southwest 428 493 36,000  Level Memphis Center
04:40PM 36.5858 -87.4292 236° Southwest 428 493 36,000  Level Memphis Center
04:41PM 36.5092 -87.5722 236° Southwest 427 491 36,000  Level Memphis Center
04:42PM 36.4436 -87.6972 237° Southwest 427 491 36,000  Level Memphis Center
04:43PM 36.3786 -87.8200 237° Southwest 427 491 36,000  Level Memphis Center
04:44PM 36.3125 -87.9431 236° Southwest 427 491 36,000  Level Memphis Center
04:45PM 36.2481 -88.0656 237° Southwest 426 490 36,000  Level Memphis Center
04:46PM 36.1817 -88.1906 237° Southwest 425 489 36,000  Level Memphis Center
04:48PM 36.1186 -88.3125 237° Southwest 425 489 36,000  Level Memphis Center
04:50PM 36.0326 -88.5485 246° West  Level FlightAware Approximate
04:51PM 35.9517 -88.7328 246° West 425 489 36,000  Level Memphis Center
04:52PM 35.9053 -88.8681 247° West 425 489 36,000  Level Memphis Center
04:53PM 35.8561 -89.0036 246° West 425 489 36,000  Level Memphis Center
04:54PM 35.8089 -89.1397 247° West 425 489 36,000  Level Memphis Center
04:55PM 35.7603 -89.2756 246° West 427 491 36,000  Level Memphis Center
04:56PM 35.7114 -89.4122 246° West 430 495 36,000  Level Memphis Center
04:57PM 35.6558 -89.5689 246° West 431 496 36,000  Level Memphis Center
04:58PM 35.6089 -89.7031 247° West 431 496 36,000  Level Memphis Center
04:59PM 35.5600 -89.8375 246° West 431 496 36,000  Level Memphis Center
05:00PM 35.5117 -89.9706 246° West 431 496 36,000  Level Memphis Center
05:01PM 35.4531 -90.1294 246° West 431 496 36,000  Level Memphis Center
05:02PM 35.4044 -90.2631 246° West 431 496 36,000  Level Memphis Center
05:04PM 35.3072 -90.5264 246° West 429 494 36,000  Level Memphis Center
05:05PM 35.2486 -90.6822 245° Southwest 426 490 36,000  Level Memphis Center
05:06PM 35.2003 -90.8108 245° Southwest 424 488 36,000  Level Memphis Center
05:07PM 35.1517 -90.9406 245° Southwest 423 487 36,000  Level Memphis Center
05:08PM 35.1033 -91.0706 246° West 423 487 36,000  Level Memphis Center
05:09PM 35.0550 -91.1989 245° Southwest 423 487 36,000  Level Memphis Center
05:10PM 35.0053 -91.3300 245° Southwest 423 487 36,000  Level Memphis Center
05:11PM 34.9517 -91.4675 245° Southwest 423 487 36,000  Level Memphis Center
05:12PM 34.9031 -91.5964 245° Southwest 423 487 36,000  Level Memphis Center
05:14PM 34.7933 -91.8819 243° Southwest 423 487 36,000  Level Memphis Center
05:15PM 34.7428 -92.0108 245° Southwest 423 487 36,000  Level Memphis Center
05:17PM 34.6933 -92.1403 245° Southwest 422 486 36,000  Level Memphis Center
05:18PM 34.6533 -92.2764 250° West 427 491 36,000  Level Memphis Center
05:20PM 34.5731 -92.5783 252° West 427 491 36,000  Level Memphis Center
05:23PM 34.4703 -92.9603 253° West 426 490 36,000  Level Fort Worth Center
05:24PM 34.4350 -93.0892 252° West 425 489 36,000  Level Fort Worth Center
05:25PM 34.3897 -93.2581 252° West 424 488 36,000  Level Memphis Center
05:26PM 34.3533 -93.3906 252° West 419 482 36,000  Level Memphis Center
05:27PM 34.3128 -93.5417 252° West 418 481 36,000  Level Memphis Center
05:28PM 34.2769 -93.6731 252° West 416 479 36,000  Level Memphis Center
05:29PM 34.2400 -93.8047 251° West 416 479 36,000  Level Memphis Center
05:30PM 34.2125 -93.9108 253° West 416 479 36,000  Level Fort Worth Center
05:31PM 34.1722 -94.0683 253° West 411 473 36,000 -240 Level Fort Worth Center
05:32PM 34.1425 -94.2044 255° West 418 481 35,600 -540 Descending Fort Worth Center
05:33PM 34.1122 -94.3428 255° West 425 489 35,000 -780 Descending Fort Worth Center
05:35PM 34.0544 -94.6111 256° West 410 472 33,300 -660 Descending Fort Worth Center
05:36PM 34.0172 -94.7744 255° West 418 481 33,000 -120 Descending Fort Worth Center
05:38PM 33.9578 -95.0475 255° West 420 483 33,000 -180 Level Fort Worth Center
05:39PM 33.9256 -95.1867 254° West 433 498 32,600 -1,080 Descending Fort Worth Center
05:40PM 33.8939 -95.3256 255° West 434 499 30,800 -2,040 Descending Fort Worth Center
05:41PM 33.8572 -95.4914 255° West 430 495 28,400 -2,100 Descending Fort Worth Center
05:42PM 33.8275 -95.6211 255° West 442 509 26,500 -2,160 Descending Fort Worth Center
05:43PM 33.7883 -95.7908 255° West 441 507 23,900 -2,280 Descending Fort Worth Center
05:44PM 33.7556 -95.9333 255° West 441 507 21,800 -2,160 Descending Fort Worth Center
05:45PM 33.7211 -96.0786 254° West 422 486 19,500 -2,160 Descending Fort Worth Center
05:46PM 33.6911 -96.2089 255° West 409 471 17,400 -2,100 Descending Fort Worth Center
05:47PM 33.6583 -96.3403 253° West 385 443 15,200 -1,860 Descending Fort Worth Center
05:49PM 33.5167 -96.5333 246° West 357 411 11,700 -1,320 Descending Dallas / Fort Worth TRACON
05:50PM 33.4519 -96.5939 218° Southwest 304 350 11,100 -780 Descending Fort Worth Center
05:52PM 33.3886 -96.6594 221° Southwest 283 326 10,200 -1,260 Descending Fort Worth Center
05:53PM 33.3692 -96.7497 256° West 296 341 8,600 -1,500 Descending Fort Worth Center
05:54PM 33.3692 -96.8444 270° West 290 334 7,100 -1,800 Descending Fort Worth Center
05:55PM 33.3700 -96.9419 271° West 279 321 5,000 -1,500 Descending Fort Worth Center
05:56PM 33.3683 -97.0333 269° West 278 320 4,000 -480 Descending Fort Worth Center
05:57PM 33.3686 -97.1294 270° West 272 313 4,100  Climbing Fort Worth Center
05:58PM 33.3672 -97.2244 269° West 278 320 4,100 -120 Level Fort Worth Center
05:59PM 33.2833 -97.3000 217° Southwest 247 284 3,900 -300 Descending Dallas / Fort Worth TRACON
06:00PM 33.2486 -97.3225 208° Southwest 249 287 3,600 -600 Descending Fort Worth Center
06:01PM 33.1903 -97.3528 203° Southwest 230 265 3,000 -360 Descending Fort Worth Center
06:02PM 33.1339 -97.3725 196° South 196 226 2,900 -60 Descending Fort Worth Center
06:03PM 33.0822 -97.3919 198° South 193 222 2,900  Level Fort Worth Center
06:04PM 33.0208 -97.3953 183° South 205 236 2,900 -120 Level Fort Worth Center
06:05PM 32.9686 -97.3858 171° South 190 219 2,700 -300 Descending Fort Worth Center
06:06PM 32.9178 -97.3775 172° South 173 199 2,300 -540 Descending Fort Worth Center
06:07PM 32.8725 -97.3697 172° South 169 194 1,700 -720 Descending Fort Worth Center
06:08PM 32.8386 -97.3644 173° South 124 143 900 -780 Descending Fort Worth Center
06:10PM 32.8167 -97.3500 232° Southwest  Level FlightAware Approximate